sensor_id;sensor_type;location;lat;lon;timestamp;temperature;humidity
75471;HTU21D;64051;46.320;48.028;2023-03-23T00:01:06;6.96;65.97
75471;HTU21D;64051;46.320;48.028;2023-03-23T00:03:32;6.95;65.98
75471;HTU21D;64051;46.320;48.028;2023-03-23T00:05:59;6.93;66.01
75471;HTU21D;64051;46.320;48.028;2023-03-23T00:08:34;6.90;66.14
75471;HTU21D;64051;46.320;48.028;2023-03-23T00:11:06;6.89;66.14
75471;HTU21D;64051;46.320;48.028;2023-03-23T00:13:33;6.87;66.11
75471;HTU21D;64051;46.320;48.028;2023-03-23T00:15:59;6.86;66.21
75471;HTU21D;64051;46.320;48.028;2023-03-23T00:18:25;6.86;66.30
75471;HTU21D;64051;46.320;48.028;2023-03-23T00:20:53;6.85;66.29
75471;HTU21D;64051;46.320;48.028;2023-03-23T00:23:22;6.83;66.23
75471;HTU21D;64051;46.320;48.028;2023-03-23T00:25:53;6.80;66.25
75471;HTU21D;64051;46.320;48.028;2023-03-23T00:28:22;6.78;66.53
75471;HTU21D;64051;46.320;48.028;2023-03-23T00:30:58;6.72;66.17
75471;HTU21D;64051;46.320;48.028;2023-03-23T00:33:26;6.68;66.18
75471;HTU21D;64051;46.320;48.028;2023-03-23T00:35:53;6.67;66.23
75471;HTU21D;64051;46.320;48.028;2023-03-23T00:38:23;6.66;66.32
75471;HTU21D;64051;46.320;48.028;2023-03-23T00:40:52;6.65;66.34
75471;HTU21D;64051;46.320;48.028;2023-03-23T00:43:21;6.64;66.34
75471;HTU21D;64051;46.320;48.028;2023-03-23T00:45:50;6.61;66.38
75471;HTU21D;64051;46.320;48.028;2023-03-23T00:48:20;6.61;66.40
75471;HTU21D;64051;46.320;48.028;2023-03-23T00:50:46;6.58;66.46
75471;HTU21D;64051;46.320;48.028;2023-03-23T00:53:13;6.56;66.49
75471;HTU21D;64051;46.320;48.028;2023-03-23T00:55:44;6.55;66.56
75471;HTU21D;64051;46.320;48.028;2023-03-23T00:58:11;6.54;66.62
75471;HTU21D;64051;46.320;48.028;2023-03-23T01:00:37;6.50;66.65
75471;HTU21D;64051;46.320;48.028;2023-03-23T01:03:05;6.48;66.80
75471;HTU21D;64051;46.320;48.028;2023-03-23T01:05:35;6.45;67.05
75471;HTU21D;64051;46.320;48.028;2023-03-23T01:08:03;6.43;67.02
75471;HTU21D;64051;46.320;48.028;2023-03-23T01:10:30;6.38;66.95
75471;HTU21D;64051;46.320;48.028;2023-03-23T01:13:01;6.36;67.00
75471;HTU21D;64051;46.320;48.028;2023-03-23T01:15:27;6.31;66.99
75471;HTU21D;64051;46.320;48.028;2023-03-23T01:17:53;6.26;67.07
75471;HTU21D;64051;46.320;48.028;2023-03-23T01:20:20;6.19;67.14
75471;HTU21D;64051;46.320;48.028;2023-03-23T01:22:46;6.15;67.17
75471;HTU21D;64051;46.320;48.028;2023-03-23T01:25:13;6.12;67.33
75471;HTU21D;64051;46.320;48.028;2023-03-23T01:27:40;6.09;67.42
75471;HTU21D;64051;46.320;48.028;2023-03-23T01:30:07;6.06;67.59
75471;HTU21D;64051;46.320;48.028;2023-03-23T01:32:34;6.02;67.56
75471;HTU21D;64051;46.320;48.028;2023-03-23T01:35:00;5.99;67.63
75471;HTU21D;64051;46.320;48.028;2023-03-23T01:37:26;5.98;67.93
75471;HTU21D;64051;46.320;48.028;2023-03-23T01:39:55;5.98;67.99
75471;HTU21D;64051;46.320;48.028;2023-03-23T01:42:29;5.97;68.29
75471;HTU21D;64051;46.320;48.028;2023-03-23T01:45:25;5.97;68.51
75471;HTU21D;64051;46.320;48.028;2023-03-23T01:47:57;5.97;68.05
75471;HTU21D;64051;46.320;48.028;2023-03-23T01:50:27;5.96;68.54
75471;HTU21D;64051;46.320;48.028;2023-03-23T01:52:56;5.97;68.33
75471;HTU21D;64051;46.320;48.028;2023-03-23T01:55:25;5.97;68.23
75471;HTU21D;64051;46.320;48.028;2023-03-23T01:57:54;5.99;68.30
75471;HTU21D;64051;46.320;48.028;2023-03-23T02:00:20;5.99;68.56
75471;HTU21D;64051;46.320;48.028;2023-03-23T02:02:52;6.01;68.39
75471;HTU21D;64051;46.320;48.028;2023-03-23T02:05:30;6.05;68.57
75471;HTU21D;64051;46.320;48.028;2023-03-23T02:08:02;6.06;68.44
75471;HTU21D;64051;46.320;48.028;2023-03-23T02:10:33;6.07;68.59
75471;HTU21D;64051;46.320;48.028;2023-03-23T02:13:02;6.08;68.62
75471;HTU21D;64051;46.320;48.028;2023-03-23T02:15:47;6.08;68.86
75471;HTU21D;64051;46.320;48.028;2023-03-23T02:24:17;6.01;68.62
75471;HTU21D;64051;46.320;48.028;2023-03-23T02:27:17;5.98;69.13
75471;HTU21D;64051;46.320;48.028;2023-03-23T02:30:43;5.96;68.97
75471;HTU21D;64051;46.320;48.028;2023-03-23T02:36:05;5.97;70.09
75471;HTU21D;64051;46.320;48.028;2023-03-23T02:41:24;5.94;68.68
75471;HTU21D;64051;46.320;48.028;2023-03-23T02:43:53;5.95;68.80
75471;HTU21D;64051;46.320;48.028;2023-03-23T02:46:22;5.98;68.71
75471;HTU21D;64051;46.320;48.028;2023-03-23T02:48:50;5.96;68.83
75471;HTU21D;64051;46.320;48.028;2023-03-23T02:51:19;5.93;68.91
75471;HTU21D;64051;46.320;48.028;2023-03-23T02:53:49;5.93;68.74
75471;HTU21D;64051;46.320;48.028;2023-03-23T02:56:17;5.93;68.68
75471;HTU21D;64051;46.320;48.028;2023-03-23T02:58:44;5.91;68.68
75471;HTU21D;64051;46.320;48.028;2023-03-23T03:03:54;5.92;68.81
75471;HTU21D;64051;46.320;48.028;2023-03-23T03:07:33;5.94;70.03
75471;HTU21D;64051;46.320;48.028;2023-03-23T03:12:30;5.97;69.06
75471;HTU21D;64051;46.320;48.028;2023-03-23T03:15:11;5.98;69.30
75471;HTU21D;64051;46.320;48.028;2023-03-23T03:17:44;6.05;69.22
75471;HTU21D;64051;46.320;48.028;2023-03-23T03:20:15;6.09;69.10
75471;HTU21D;64051;46.320;48.028;2023-03-23T03:22:43;6.14;69.10
75471;HTU21D;64051;46.320;48.028;2023-03-23T03:25:11;6.20;69.33
75471;HTU21D;64051;46.320;48.028;2023-03-23T03:27:44;6.24;69.22
75471;HTU21D;64051;46.320;48.028;2023-03-23T03:30:20;6.30;69.17
75471;HTU21D;64051;46.320;48.028;2023-03-23T03:32:49;6.38;69.39
75471;HTU21D;64051;46.320;48.028;2023-03-23T03:35:21;6.44;69.36
75471;HTU21D;64051;46.320;48.028;2023-03-23T03:37:49;6.52;69.46
75471;HTU21D;64051;46.320;48.028;2023-03-23T03:40:18;6.58;69.38
75471;HTU21D;64051;46.320;48.028;2023-03-23T03:42:45;6.65;69.42
75471;HTU21D;64051;46.320;48.028;2023-03-23T03:45:17;6.73;69.41
75471;HTU21D;64051;46.320;48.028;2023-03-23T03:47:44;6.80;69.20
75471;HTU21D;64051;46.320;48.028;2023-03-23T03:50:10;6.88;69.15
75471;HTU21D;64051;46.320;48.028;2023-03-23T03:52:37;6.96;69.05
75471;HTU21D;64051;46.320;48.028;2023-03-23T03:55:05;7.05;69.16
75471;HTU21D;64051;46.320;48.028;2023-03-23T03:57:33;7.12;69.27
75471;HTU21D;64051;46.320;48.028;2023-03-23T04:00:22;7.24;69.15
75471;HTU21D;64051;46.320;48.028;2023-03-23T04:02:50;7.34;69.08
75471;HTU21D;64051;46.320;48.028;2023-03-23T04:05:39;7.46;69.20
75471;HTU21D;64051;46.320;48.028;2023-03-23T04:08:09;7.57;69.04
75471;HTU21D;64051;46.320;48.028;2023-03-23T04:10:36;7.68;68.97
75471;HTU21D;64051;46.320;48.028;2023-03-23T04:13:06;7.81;69.00
75471;HTU21D;64051;46.320;48.028;2023-03-23T04:15:51;7.94;68.96
75471;HTU21D;64051;46.320;48.028;2023-03-23T04:18:18;8.05;69.02
75471;HTU21D;64051;46.320;48.028;2023-03-23T04:20:49;8.19;69.00
75471;HTU21D;64051;46.320;48.028;2023-03-23T04:23:19;8.33;69.23
75471;HTU21D;64051;46.320;48.028;2023-03-23T04:25:52;8.46;69.23
75471;HTU21D;64051;46.320;48.028;2023-03-23T04:28:24;8.60;69.03
75471;HTU21D;64051;46.320;48.028;2023-03-23T04:31:17;8.77;69.22
75471;HTU21D;64051;46.320;48.028;2023-03-23T04:33:47;8.92;69.20
75471;HTU21D;64051;46.320;48.028;2023-03-23T04:36:14;9.06;68.90
75471;HTU21D;64051;46.320;48.028;2023-03-23T04:38:50;9.23;68.94
75471;HTU21D;64051;46.320;48.028;2023-03-23T04:41:22;9.37;68.92
75471;HTU21D;64051;46.320;48.028;2023-03-23T04:44:01;9.56;68.94
75471;HTU21D;64051;46.320;48.028;2023-03-23T04:46:35;9.71;68.86
75471;HTU21D;64051;46.320;48.028;2023-03-23T04:49:07;9.90;68.89
75471;HTU21D;64051;46.320;48.028;2023-03-23T04:51:37;10.05;68.97
75471;HTU21D;64051;46.320;48.028;2023-03-23T04:54:31;10.25;68.91
75471;HTU21D;64051;46.320;48.028;2023-03-23T04:57:00;10.42;68.87
75471;HTU21D;64051;46.320;48.028;2023-03-23T04:59:26;10.59;69.03
75471;HTU21D;64051;46.320;48.028;2023-03-23T05:02:13;10.79;68.94
75471;HTU21D;64051;46.320;48.028;2023-03-23T05:04:43;10.98;69.08
75471;HTU21D;64051;46.320;48.028;2023-03-23T05:07:13;11.14;69.12
75471;HTU21D;64051;46.320;48.028;2023-03-23T05:09:48;11.34;69.05
75471;HTU21D;64051;46.320;48.028;2023-03-23T05:12:17;11.52;69.02
75471;HTU21D;64051;46.320;48.028;2023-03-23T05:14:57;11.67;68.87
75471;HTU21D;64051;46.320;48.028;2023-03-23T05:17:30;11.79;68.84
75471;HTU21D;64051;46.320;48.028;2023-03-23T05:20:00;11.96;68.97
75471;HTU21D;64051;46.320;48.028;2023-03-23T05:22:41;12.13;68.79
75471;HTU21D;64051;46.320;48.028;2023-03-23T05:25:08;12.28;68.69
75471;HTU21D;64051;46.320;48.028;2023-03-23T05:27:38;12.43;68.57
75471;HTU21D;64051;46.320;48.028;2023-03-23T05:30:16;12.58;68.42
75471;HTU21D;64051;46.320;48.028;2023-03-23T05:32:44;12.72;68.44
75471;HTU21D;64051;46.320;48.028;2023-03-23T05:35:30;12.87;68.25
75471;HTU21D;64051;46.320;48.028;2023-03-23T05:37:56;12.99;68.18
75471;HTU21D;64051;46.320;48.028;2023-03-23T05:40:24;13.14;68.10
75471;HTU21D;64051;46.320;48.028;2023-03-23T05:42:56;13.26;67.94
75471;HTU21D;64051;46.320;48.028;2023-03-23T05:45:36;13.38;67.86
75471;HTU21D;64051;46.320;48.028;2023-03-23T05:48:03;13.52;67.74
75471;HTU21D;64051;46.320;48.028;2023-03-23T05:50:29;13.65;67.72
75471;HTU21D;64051;46.320;48.028;2023-03-23T05:52:55;13.79;67.53
75471;HTU21D;64051;46.320;48.028;2023-03-23T05:55:28;13.93;67.39
75471;HTU21D;64051;46.320;48.028;2023-03-23T05:58:21;14.10;67.32
75471;HTU21D;64051;46.320;48.028;2023-03-23T06:00:50;14.25;67.28
75471;HTU21D;64051;46.320;48.028;2023-03-23T06:03:21;14.41;67.07
75471;HTU21D;64051;46.320;48.028;2023-03-23T06:06:11;14.59;66.93
75471;HTU21D;64051;46.320;48.028;2023-03-23T06:08:54;14.78;66.66
75471;HTU21D;64051;46.320;48.028;2023-03-23T06:11:33;14.94;66.43
75471;HTU21D;64051;46.320;48.028;2023-03-23T06:14:19;15.12;66.16
75471;HTU21D;64051;46.320;48.028;2023-03-23T06:16:50;15.26;65.82
75471;HTU21D;64051;46.320;48.028;2023-03-23T06:19:17;15.45;65.46
75471;HTU21D;64051;46.320;48.028;2023-03-23T06:21:54;15.59;65.14
75471;HTU21D;64051;46.320;48.028;2023-03-23T06:24:44;15.73;64.80
75471;HTU21D;64051;46.320;48.028;2023-03-23T06:27:12;15.85;64.40
75471;HTU21D;64051;46.320;48.028;2023-03-23T06:29:41;15.96;64.17
75471;HTU21D;64051;46.320;48.028;2023-03-23T06:32:10;16.10;63.92
75471;HTU21D;64051;46.320;48.028;2023-03-23T06:34:42;16.25;63.73
75471;HTU21D;64051;46.320;48.028;2023-03-23T06:37:28;16.41;63.33
75471;HTU21D;64051;46.320;48.028;2023-03-23T06:40:04;16.55;62.93
75471;HTU21D;64051;46.320;48.028;2023-03-23T06:42:39;16.70;62.65
75471;HTU21D;64051;46.320;48.028;2023-03-23T06:45:33;16.85;62.18
75471;HTU21D;64051;46.320;48.028;2023-03-23T06:48:19;17.02;61.88
75471;HTU21D;64051;46.320;48.028;2023-03-23T06:50:46;17.16;61.38
75471;HTU21D;64051;46.320;48.028;2023-03-23T06:53:21;17.33;61.15
75471;HTU21D;64051;46.320;48.028;2023-03-23T06:55:48;17.52;60.70
75471;HTU21D;64051;46.320;48.028;2023-03-23T06:58:20;17.65;60.10
75471;HTU21D;64051;46.320;48.028;2023-03-23T07:00:54;17.70;59.40
75471;HTU21D;64051;46.320;48.028;2023-03-23T07:03:31;17.74;59.21
75471;HTU21D;64051;46.320;48.028;2023-03-23T07:05:58;17.74;58.92
75471;HTU21D;64051;46.320;48.028;2023-03-23T07:08:28;17.74;58.67
75471;HTU21D;64051;46.320;48.028;2023-03-23T07:10:56;17.69;58.25
75471;HTU21D;64051;46.320;48.028;2023-03-23T07:13:26;17.64;58.13
75471;HTU21D;64051;46.320;48.028;2023-03-23T07:16:04;17.56;58.10
75471;HTU21D;64051;46.320;48.028;2023-03-23T07:18:31;17.53;58.00
75471;HTU21D;64051;46.320;48.028;2023-03-23T07:21:04;17.55;57.75
75471;HTU21D;64051;46.320;48.028;2023-03-23T07:23:32;17.56;57.80
75471;HTU21D;64051;46.320;48.028;2023-03-23T07:26:06;17.60;57.63
75471;HTU21D;64051;46.320;48.028;2023-03-23T07:28:39;17.62;57.51
75471;HTU21D;64051;46.320;48.028;2023-03-23T07:31:27;17.68;57.36
75471;HTU21D;64051;46.320;48.028;2023-03-23T07:33:54;17.75;57.15
75471;HTU21D;64051;46.320;48.028;2023-03-23T07:36:25;17.79;56.85
75471;HTU21D;64051;46.320;48.028;2023-03-23T07:38:52;17.84;56.67
75471;HTU21D;64051;46.320;48.028;2023-03-23T07:41:24;17.93;56.36
75471;HTU21D;64051;46.320;48.028;2023-03-23T07:43:52;18.00;56.36
75471;HTU21D;64051;46.320;48.028;2023-03-23T07:46:30;18.08;56.21
75471;HTU21D;64051;46.320;48.028;2023-03-23T07:49:03;18.21;56.09
75471;HTU21D;64051;46.320;48.028;2023-03-23T07:51:43;18.36;55.93
75471;HTU21D;64051;46.320;48.028;2023-03-23T07:54:13;18.55;55.58
75471;HTU21D;64051;46.320;48.028;2023-03-23T07:56:52;18.79;55.35
75471;HTU21D;64051;46.320;48.028;2023-03-23T07:59:24;19.05;55.00
75471;HTU21D;64051;46.320;48.028;2023-03-23T08:01:51;19.33;54.64
75471;HTU21D;64051;46.320;48.028;2023-03-23T08:04:37;19.61;54.10
75471;HTU21D;64051;46.320;48.028;2023-03-23T08:07:27;19.83;53.71
75471;HTU21D;64051;46.320;48.028;2023-03-23T08:10:06;20.00;53.14
75471;HTU21D;64051;46.320;48.028;2023-03-23T08:12:58;20.15;52.77
75471;HTU21D;64051;46.320;48.028;2023-03-23T08:15:51;20.24;52.38
75471;HTU21D;64051;46.320;48.028;2023-03-23T08:18:28;20.37;52.15
75471;HTU21D;64051;46.320;48.028;2023-03-23T08:21:17;20.51;51.86
75471;HTU21D;64051;46.320;48.028;2023-03-23T08:24:05;20.68;51.32
75471;HTU21D;64051;46.320;48.028;2023-03-23T08:27:07;20.84;50.99
75471;HTU21D;64051;46.320;48.028;2023-03-23T08:30:19;20.94;50.62
75471;HTU21D;64051;46.320;48.028;2023-03-23T08:33:13;20.99;50.08
75471;HTU21D;64051;46.320;48.028;2023-03-23T08:36:00;21.03;49.98
75471;HTU21D;64051;46.320;48.028;2023-03-23T08:38:46;21.10;49.69
75471;HTU21D;64051;46.320;48.028;2023-03-23T08:41:33;21.20;48.65
75471;HTU21D;64051;46.320;48.028;2023-03-23T08:44:25;21.30;48.70
75471;HTU21D;64051;46.320;48.028;2023-03-23T08:47:11;21.42;48.73
75471;HTU21D;64051;46.320;48.028;2023-03-23T08:49:53;21.47;48.24
75471;HTU21D;64051;46.320;48.028;2023-03-23T08:52:46;21.48;48.19
75471;HTU21D;64051;46.320;48.028;2023-03-23T08:55:39;21.47;47.90
75471;HTU21D;64051;46.320;48.028;2023-03-23T08:58:29;21.44;47.73
75471;HTU21D;64051;46.320;48.028;2023-03-23T09:00:55;21.45;47.54
75471;HTU21D;64051;46.320;48.028;2023-03-23T09:03:39;21.51;47.34
75471;HTU21D;64051;46.320;48.028;2023-03-23T09:06:32;21.57;46.89
75471;HTU21D;64051;46.320;48.028;2023-03-23T09:09:02;21.62;46.65
75471;HTU21D;64051;46.320;48.028;2023-03-23T09:11:35;21.72;46.57
75471;HTU21D;64051;46.320;48.028;2023-03-23T09:14:10;21.90;46.27
75471;HTU21D;64051;46.320;48.028;2023-03-23T09:16:39;22.04;46.02
75471;HTU21D;64051;46.320;48.028;2023-03-23T09:19:05;22.16;45.56
75471;HTU21D;64051;46.320;48.028;2023-03-23T09:21:37;22.28;45.16
75471;HTU21D;64051;46.320;48.028;2023-03-23T09:24:06;22.40;44.12
75471;HTU21D;64051;46.320;48.028;2023-03-23T09:26:32;22.44;43.88
75471;HTU21D;64051;46.320;48.028;2023-03-23T09:29:01;22.44;43.32
75471;HTU21D;64051;46.320;48.028;2023-03-23T09:31:26;22.44;43.16
75471;HTU21D;64051;46.320;48.028;2023-03-23T09:33:54;22.49;42.80
75471;HTU21D;64051;46.320;48.028;2023-03-23T09:36:23;22.55;42.90
75471;HTU21D;64051;46.320;48.028;2023-03-23T09:38:52;22.63;42.35
75471;HTU21D;64051;46.320;48.028;2023-03-23T09:50:18;22.56;40.67
75471;HTU21D;64051;46.320;48.028;2023-03-23T09:52:51;22.47;41.03
75471;HTU21D;64051;46.320;48.028;2023-03-23T09:55:19;22.38;41.07
75471;HTU21D;64051;46.320;48.028;2023-03-23T10:01:10;22.58;39.89
75471;HTU21D;64051;46.320;48.028;2023-03-23T10:03:41;22.81;40.51
75471;HTU21D;64051;46.320;48.028;2023-03-23T10:06:16;23.03;37.39
75471;HTU21D;64051;46.320;48.028;2023-03-23T10:08:51;23.14;39.56
75471;HTU21D;64051;46.320;48.028;2023-03-23T10:22:11;23.62;38.64
75471;HTU21D;64051;46.320;48.028;2023-03-23T10:24:52;23.58;37.77
75471;HTU21D;64051;46.320;48.028;2023-03-23T10:27:26;23.55;37.93
75471;HTU21D;64051;46.320;48.028;2023-03-23T10:30:22;23.49;37.79
75471;HTU21D;64051;46.320;48.028;2023-03-23T10:32:56;23.34;37.14
75471;HTU21D;64051;46.320;48.028;2023-03-23T10:35:30;23.27;37.52
75471;HTU21D;64051;46.320;48.028;2023-03-23T10:38:06;23.36;37.50
75471;HTU21D;64051;46.320;48.028;2023-03-23T10:40:47;23.40;37.00
75471;HTU21D;64051;46.320;48.028;2023-03-23T10:43:17;23.36;37.21
75471;HTU21D;64051;46.320;48.028;2023-03-23T10:45:59;23.36;36.32
75471;HTU21D;64051;46.320;48.028;2023-03-23T10:48:37;23.31;36.59
75471;HTU21D;64051;46.320;48.028;2023-03-23T10:51:11;23.20;37.00
75471;HTU21D;64051;46.320;48.028;2023-03-23T10:53:43;23.14;36.95
75471;HTU21D;64051;46.320;48.028;2023-03-23T10:56:27;23.05;36.81
75471;HTU21D;64051;46.320;48.028;2023-03-23T10:59:10;22.90;37.11
75471;HTU21D;64051;46.320;48.028;2023-03-23T11:01:43;22.81;37.01
75471;HTU21D;64051;46.320;48.028;2023-03-23T11:04:15;22.76;37.20
75471;HTU21D;64051;46.320;48.028;2023-03-23T11:06:59;22.69;36.67
75471;HTU21D;64051;46.320;48.028;2023-03-23T11:09:40;22.66;36.91
75471;HTU21D;64051;46.320;48.028;2023-03-23T11:12:18;22.66;37.46
75471;HTU21D;64051;46.320;48.028;2023-03-23T11:14:44;22.71;37.57
75471;HTU21D;64051;46.320;48.028;2023-03-23T11:17:25;22.73;36.02
75471;HTU21D;64051;46.320;48.028;2023-03-23T11:19:52;22.67;37.35
75471;HTU21D;64051;46.320;48.028;2023-03-23T11:22:31;22.57;37.12
75471;HTU21D;64051;46.320;48.028;2023-03-23T11:25:05;22.46;37.28
75471;HTU21D;64051;46.320;48.028;2023-03-23T11:27:32;22.35;37.47
75471;HTU21D;64051;46.320;48.028;2023-03-23T11:32:43;22.16;37.67
75471;HTU21D;64051;46.320;48.028;2023-03-23T11:35:31;22.05;37.91
75471;HTU21D;64051;46.320;48.028;2023-03-23T11:37:58;21.94;37.93
75471;HTU21D;64051;46.320;48.028;2023-03-23T11:40:27;21.88;37.97
75471;HTU21D;64051;46.320;48.028;2023-03-23T11:45:32;21.80;37.92
75471;HTU21D;64051;46.320;48.028;2023-03-23T11:50:58;21.87;37.99
75471;HTU21D;64051;46.320;48.028;2023-03-23T11:53:52;21.93;37.45
75471;HTU21D;64051;46.320;48.028;2023-03-23T11:56:26;21.93;37.71
75471;HTU21D;64051;46.320;48.028;2023-03-23T11:58:55;21.91;38.48
75471;HTU21D;64051;46.320;48.028;2023-03-23T12:01:55;21.95;38.10
75471;HTU21D;64051;46.320;48.028;2023-03-23T12:13:09;22.13;37.96
75471;HTU21D;64051;46.320;48.028;2023-03-23T12:16:02;22.20;37.60
75471;HTU21D;64051;46.320;48.028;2023-03-23T12:24:05;22.32;37.35
75471;HTU21D;64051;46.320;48.028;2023-03-23T12:26:42;22.28;37.45
75471;HTU21D;64051;46.320;48.028;2023-03-23T12:29:23;22.29;37.53
75471;HTU21D;64051;46.320;48.028;2023-03-23T12:46:06;21.82;37.23
75471;HTU21D;64051;46.320;48.028;2023-03-23T12:54:31;21.54;37.52
75471;HTU21D;64051;46.320;48.028;2023-03-23T12:57:07;21.49;37.82
75471;HTU21D;64051;46.320;48.028;2023-03-23T13:02:31;21.32;38.07
75471;HTU21D;64051;46.320;48.028;2023-03-23T13:08:19;21.11;37.73
75471;HTU21D;64051;46.320;48.028;2023-03-23T13:10:51;21.01;38.38
75471;HTU21D;64051;46.320;48.028;2023-03-23T13:13:26;20.93;38.28
75471;HTU21D;64051;46.320;48.028;2023-03-23T13:16:08;20.86;38.24
75471;HTU21D;64051;46.320;48.028;2023-03-23T13:21:30;20.65;38.49
75471;HTU21D;64051;46.320;48.028;2023-03-23T13:24:04;20.55;38.52
75471;HTU21D;64051;46.320;48.028;2023-03-23T13:26:39;20.44;38.50
75471;HTU21D;64051;46.320;48.028;2023-03-23T13:29:12;20.34;38.70
75471;HTU21D;64051;46.320;48.028;2023-03-23T13:31:41;20.25;38.84
75471;HTU21D;64051;46.320;48.028;2023-03-23T13:34:28;20.17;38.56
75471;HTU21D;64051;46.320;48.028;2023-03-23T13:37:03;20.06;38.81
75471;HTU21D;64051;46.320;48.028;2023-03-23T13:39:52;19.95;37.80
75471;HTU21D;64051;46.320;48.028;2023-03-23T13:42:23;19.83;38.88
75471;HTU21D;64051;46.320;48.028;2023-03-23T14:03:16;18.77;39.04
75471;HTU21D;64051;46.320;48.028;2023-03-23T14:08:37;18.52;38.33
75471;HTU21D;64051;46.320;48.028;2023-03-23T14:11:27;18.41;39.00
75471;HTU21D;64051;46.320;48.028;2023-03-23T14:14:01;18.26;39.13
75471;HTU21D;64051;46.320;48.028;2023-03-23T14:16:39;18.17;38.85
75471;HTU21D;64051;46.320;48.028;2023-03-23T14:19:25;18.03;38.59
75471;HTU21D;64051;46.320;48.028;2023-03-23T14:22:00;17.94;38.66
75471;HTU21D;64051;46.320;48.028;2023-03-23T14:24:31;17.81;38.69
75471;HTU21D;64051;46.320;48.028;2023-03-23T14:27:21;17.70;38.45
75471;HTU21D;64051;46.320;48.028;2023-03-23T14:30:05;17.58;38.42
75471;HTU21D;64051;46.320;48.028;2023-03-23T14:32:35;17.47;38.65
75471;HTU21D;64051;46.320;48.028;2023-03-23T14:35:07;17.37;38.20
75471;HTU21D;64051;46.320;48.028;2023-03-23T14:37:34;17.25;38.53
75471;HTU21D;64051;46.320;48.028;2023-03-23T14:40:15;17.14;38.36
75471;HTU21D;64051;46.320;48.028;2023-03-23T14:42:57;17.00;38.66
75471;HTU21D;64051;46.320;48.028;2023-03-23T14:45:25;16.87;38.71
75471;HTU21D;64051;46.320;48.028;2023-03-23T14:48:02;16.75;38.65
75471;HTU21D;64051;46.320;48.028;2023-03-23T14:50:38;16.59;38.79
75471;HTU21D;64051;46.320;48.028;2023-03-23T14:55:43;16.31;39.14
75471;HTU21D;64051;46.320;48.028;2023-03-23T14:58:14;16.17;39.22
75471;HTU21D;64051;46.320;48.028;2023-03-23T15:01:09;16.04;39.31
75471;HTU21D;64051;46.320;48.028;2023-03-23T15:03:48;15.87;39.48
75471;HTU21D;64051;46.320;48.028;2023-03-23T15:06:21;15.71;39.65
75471;HTU21D;64051;46.320;48.028;2023-03-23T15:08:53;15.59;39.71
75471;HTU21D;64051;46.320;48.028;2023-03-23T15:11:35;15.46;39.63
75471;HTU21D;64051;46.320;48.028;2023-03-23T15:14:17;15.34;39.71
75471;HTU21D;64051;46.320;48.028;2023-03-23T15:16:51;15.22;39.83
75471;HTU21D;64051;46.320;48.028;2023-03-23T15:19:37;15.10;39.95
75471;HTU21D;64051;46.320;48.028;2023-03-23T15:22:29;14.97;39.85
75471;HTU21D;64051;46.320;48.028;2023-03-23T15:25:21;14.83;39.91
75471;HTU21D;64051;46.320;48.028;2023-03-23T15:27:56;14.69;40.01
75471;HTU21D;64051;46.320;48.028;2023-03-23T15:33:12;14.47;40.17
75471;HTU21D;64051;46.320;48.028;2023-03-23T15:35:48;14.36;40.28
75471;HTU21D;64051;46.320;48.028;2023-03-23T15:38:29;14.27;40.34
75471;HTU21D;64051;46.320;48.028;2023-03-23T15:41:19;14.18;40.50
75471;HTU21D;64051;46.320;48.028;2023-03-23T15:43:55;14.07;40.46
75471;HTU21D;64051;46.320;48.028;2023-03-23T15:46:28;13.97;40.65
75471;HTU21D;64051;46.320;48.028;2023-03-23T15:49:14;13.89;40.62
75471;HTU21D;64051;46.320;48.028;2023-03-23T15:51:44;13.81;40.75
75471;HTU21D;64051;46.320;48.028;2023-03-23T15:54:14;13.71;40.82
75471;HTU21D;64051;46.320;48.028;2023-03-23T15:56:45;13.62;40.93
75471;HTU21D;64051;46.320;48.028;2023-03-23T15:59:15;13.55;41.04
75471;HTU21D;64051;46.320;48.028;2023-03-23T16:01:44;13.46;41.14
75471;HTU21D;64051;46.320;48.028;2023-03-23T16:04:17;13.40;41.20
75471;HTU21D;64051;46.320;48.028;2023-03-23T16:06:54;13.33;41.33
75471;HTU21D;64051;46.320;48.028;2023-03-23T16:09:24;13.25;41.44
75471;HTU21D;64051;46.320;48.028;2023-03-23T16:11:51;13.17;41.57
75471;HTU21D;64051;46.320;48.028;2023-03-23T16:14:16;13.10;41.69
75471;HTU21D;64051;46.320;48.028;2023-03-23T16:16:47;13.05;41.83
75471;HTU21D;64051;46.320;48.028;2023-03-23T16:19:15;12.97;41.91
75471;HTU21D;64051;46.320;48.028;2023-03-23T16:21:52;12.90;42.05
75471;HTU21D;64051;46.320;48.028;2023-03-23T16:24:26;12.80;42.20
75471;HTU21D;64051;46.320;48.028;2023-03-23T16:27:04;12.75;42.38
75471;HTU21D;64051;46.320;48.028;2023-03-23T16:29:30;12.69;42.51
75471;HTU21D;64051;46.320;48.028;2023-03-23T16:31:59;12.62;42.68
75471;HTU21D;64051;46.320;48.028;2023-03-23T16:34:28;12.57;42.84
75471;HTU21D;64051;46.320;48.028;2023-03-23T16:37:09;12.49;42.94
75471;HTU21D;64051;46.320;48.028;2023-03-23T16:39:44;12.43;43.06
75471;HTU21D;64051;46.320;48.028;2023-03-23T16:42:22;12.37;43.22
75471;HTU21D;64051;46.320;48.028;2023-03-23T16:44:59;12.32;43.37
75471;HTU21D;64051;46.320;48.028;2023-03-23T16:47:43;12.23;43.44
75471;HTU21D;64051;46.320;48.028;2023-03-23T16:50:13;12.17;43.58
75471;HTU21D;64051;46.320;48.028;2023-03-23T16:52:41;12.11;43.72
75471;HTU21D;64051;46.320;48.028;2023-03-23T16:55:08;12.04;43.78
75471;HTU21D;64051;46.320;48.028;2023-03-23T16:57:35;11.98;43.93
75471;HTU21D;64051;46.320;48.028;2023-03-23T17:00:08;11.92;44.12
75471;HTU21D;64051;46.320;48.028;2023-03-23T17:02:42;11.85;44.26
75471;HTU21D;64051;46.320;48.028;2023-03-23T17:05:25;11.79;44.45
75471;HTU21D;64051;46.320;48.028;2023-03-23T17:07:57;11.74;44.47
75471;HTU21D;64051;46.320;48.028;2023-03-23T17:10:28;11.68;44.59
75471;HTU21D;64051;46.320;48.028;2023-03-23T17:13:01;11.58;44.58
75471;HTU21D;64051;46.320;48.028;2023-03-23T17:15:43;11.49;44.68
75471;HTU21D;64051;46.320;48.028;2023-03-23T17:18:23;11.39;44.80
75471;HTU21D;64051;46.320;48.028;2023-03-23T17:20:51;11.31;45.02
75471;HTU21D;64051;46.320;48.028;2023-03-23T17:23:29;11.24;45.18
75471;HTU21D;64051;46.320;48.028;2023-03-23T17:25:58;11.15;45.32
75471;HTU21D;64051;46.320;48.028;2023-03-23T17:28:27;11.08;45.46
75471;HTU21D;64051;46.320;48.028;2023-03-23T17:31:05;11.02;45.73
75471;HTU21D;64051;46.320;48.028;2023-03-23T17:33:37;10.96;45.64
75471;HTU21D;64051;46.320;48.028;2023-03-23T17:36:11;10.89;45.81
75471;HTU21D;64051;46.320;48.028;2023-03-23T17:38:42;10.80;45.86
75471;HTU21D;64051;46.320;48.028;2023-03-23T17:41:17;10.74;46.19
75471;HTU21D;64051;46.320;48.028;2023-03-23T17:43:54;10.67;46.20
75471;HTU21D;64051;46.320;48.028;2023-03-23T17:46:29;10.60;46.40
75471;HTU21D;64051;46.320;48.028;2023-03-23T17:48:58;10.54;46.55